Time;durP1;ratioP1;P1;durP2;ratioP2;P2;SDS_P1;SDS_P2;PMS_P1;PMS_P2;Temp;Humidity;BMP_temperature;BMP_pressure;BME280_temperature;BME280_humidity;BME280_pressure;Samples;Min_cycle;Max_cycle;Signal;HPM_P1;HPM_P2
2022/04/29 00:00:07;;;;;;;11.43;9.05;;;;;;;9.77;62.62;100159.78;5247652;28;20044;-70
2022/04/29 00:02:57;;;;;;;14.18;8.32;;;;;;;9.51;62.76;100144.91;5261573;28;20511;-69
2022/04/29 00:05:47;;;;;;;13.45;8.43;;;;;;;9.55;62.16;100151.66;5267326;28;20087;-68
2022/04/29 00:08:37;;;;;;;17.02;9.23;;;;;;;9.62;62.56;100143.16;5260005;28;20040;-70
2022/04/29 00:11:28;;;;;;;11.35;8.82;;;;;;;9.37;62.27;100132.63;5247001;28;20076;-71
2022/04/29 00:14:19;;;;;;;12.90;8.65;;;;;;;9.39;61.83;100152.72;5261131;28;20518;-68
2022/04/29 00:17:10;;;;;;;13.05;8.90;;;;;;;9.36;62.90;100142.34;5267200;28;20575;-70
2022/04/29 00:20:00;;;;;;;15.48;9.75;;;;;;;9.52;63.29;100143.94;5253331;28;20125;-70
2022/04/29 00:22:50;;;;;;;12.82;9.07;;;;;;;9.24;63.93;100121.19;5247158;28;20137;-70
2022/04/29 00:25:40;;;;;;;15.23;10.27;;;;;;;9.36;64.29;100134.41;5246968;28;20050;-69
2022/04/29 00:28:31;;;;;;;10.15;8.63;;;;;;;9.29;64.36;100127.03;5252454;28;20116;-68
2022/04/29 00:31:21;;;;;;;14.05;10.55;;;;;;;9.55;63.45;100146.38;5279200;28;20708;-69
2022/04/29 00:34:12;;;;;;;14.45;9.73;;;;;;;9.85;63.54;100130.06;5267217;28;20430;-68
2022/04/29 00:37:03;;;;;;;19.10;11.55;;;;;;;9.70;63.56;100133.81;5267033;28;20054;-69
2022/04/29 00:39:53;;;;;;;16.98;10.50;;;;;;;9.46;63.20;100131.97;5252393;28;20514;-69
2022/04/29 00:42:45;;;;;;;21.23;11.75;;;;;;;9.33;64.18;100131.13;5245754;28;20091;-69
2022/04/29 00:45:35;;;;;;;16.80;11.30;;;;;;;9.31;64.70;100125.13;5246947;28;20490;-69
2022/04/29 00:48:26;;;;;;;13.93;10.88;;;;;;;9.53;63.91;100121.78;5249558;28;20123;-69
2022/04/29 00:51:16;;;;;;;17.42;10.77;;;;;;;9.16;64.04;100106.72;5260522;28;20414;-70
2022/04/29 00:54:12;;;;;;;17.30;10.50;;;;;;;9.03;64.68;100112.97;5265285;28;20059;-70
2022/04/29 00:57:06;;;;;;;13.55;9.80;;;;;;;9.08;64.55;100126.72;5266631;28;20131;-69
2022/04/29 00:59:56;;;;;;;;;;;;;;;9.01;65.56;100125.47;5266122;28;20083;-69
2022/04/29 01:02:52;;;;;;;16.50;11.52;;;;;;;8.98;66.13;100128.31;5266473;28;19960;-69
2022/04/29 01:05:43;;;;;;;20.63;11.85;;;;;;;8.99;66.12;100120.28;5265134;28;20056;-68
2022/04/29 01:08:33;;;;;;;14.75;10.73;;;;;;;8.98;65.06;100120.41;5259155;28;20087;-69
2022/04/29 01:11:25;;;;;;;16.20;11.80;;;;;;;9.00;65.52;100129.88;5246073;28;20060;-69
2022/04/29 01:14:15;;;;;;;13.38;10.68;;;;;;;9.07;65.04;100123.25;5245820;28;20060;-69
2022/04/29 01:17:06;;;;;;;16.98;10.38;;;;;;;8.91;65.37;100109.38;5245068;28;20139;-69
2022/04/29 01:20:10;;;;;;;15.82;11.23;;;;;;;8.81;64.96;100097.75;5244622;28;20054;-69
2022/04/29 01:23:08;;;;;;;16.35;11.48;;;;;;;8.83;65.03;100088.75;5259666;28;20054;-69
2022/04/29 01:25:59;;;;;;;16.40;11.15;;;;;;;8.86;66.04;100104.41;5247027;28;20062;-69
2022/04/29 01:28:51;;;;;;;15.45;10.68;;;;;;;8.85;65.26;100105.34;5266093;28;20040;-68
2022/04/29 01:31:43;;;;;;;16.27;11.30;;;;;;;8.68;64.97;100098.59;5262023;28;20131;-69
2022/04/29 01:34:33;;;;;;;16.10;10.35;;;;;;;8.47;65.64;100092.09;5244427;28;20056;-70
2022/04/29 01:37:23;;;;;;;16.73;10.77;;;;;;;8.54;64.71;100096.00;5259477;28;20052;-69
2022/04/29 01:40:14;;;;;;;13.80;10.82;;;;;;;8.57;64.76;100079.94;5278875;28;20051;-69
2022/04/29 01:43:04;;;;;;;17.92;11.95;;;;;;;8.77;64.98;100091.81;5250925;28;20060;-69
2022/04/29 01:45:55;;;;;;;16.67;11.15;;;;;;;8.63;66.58;100097.19;5244343;28;20067;-69
2022/04/29 01:48:54;;;;;;;16.15;10.98;;;;;;;8.62;66.74;100098.16;5260694;28;20054;-69
2022/04/29 01:51:54;;;;;;;17.40;10.52;;;;;;;8.57;65.78;100106.38;5257856;28;20055;-68
2022/04/29 01:54:44;;;;;;;16.25;11.65;;;;;;;8.39;65.70;100107.63;5258280;28;20046;-69
2022/04/29 01:57:35;;;;;;;15.90;10.90;;;;;;;8.33;64.64;100108.84;5259637;28;20074;-69
2022/04/29 02:00:26;;;;;;;18.13;11.88;;;;;;;8.37;65.51;100118.25;5254393;28;20048;-68
2022/04/29 02:03:17;;;;;;;15.68;11.07;;;;;;;8.33;65.31;100110.66;5251070;28;20060;-70
2022/04/29 02:06:08;;;;;;;17.42;11.10;;;;;;;8.39;65.76;100100.56;5243742;28;20532;-69
2022/04/29 02:08:58;;;;;;;15.55;11.23;;;;;;;8.30;66.30;100098.47;5264985;28;20051;-68
2022/04/29 02:12:04;;;;;;;15.93;11.88;;;;;;;8.57;65.59;100094.97;5260070;28;20509;-69
2022/04/29 02:15:30;;;;;;;15.65;11.25;;;;;;;8.33;66.23;100098.28;5241482;28;20086;-68
2022/04/29 02:18:25;;;;;;;16.65;11.18;;;;;;;8.19;66.18;100071.94;5271766;28;20056;-69
2022/04/29 02:21:15;;;;;;;17.35;11.30;;;;;;;8.21;66.28;100084.09;5232741;28;20048;-68
2022/04/29 02:24:06;;;;;;;21.77;12.00;;;;;;;8.25;66.24;100066.25;5271315;28;20079;-69
2022/04/29 02:26:59;;;;;;;14.77;10.95;;;;;;;8.24;65.84;100077.75;5244403;28;20048;-69
2022/04/29 02:29:49;;;;;;;15.98;11.27;;;;;;;8.06;65.69;100081.63;5259626;28;20179;-68
2022/04/29 02:32:42;;;;;;;16.65;11.07;;;;;;;8.17;65.89;100081.75;5275482;28;20401;-69
2022/04/29 02:35:32;;;;;;;16.50;10.77;;;;;;;8.09;65.02;100086.72;5264747;28;20103;-69
2022/04/29 02:38:24;;;;;;;15.20;11.30;;;;;;;8.07;65.65;100080.66;5263642;28;20048;-69
2022/04/29 02:41:15;;;;;;;20.15;12.77;;;;;;;8.16;67.76;100074.78;5260868;28;20056;-69
2022/04/29 02:44:05;;;;;;;18.67;11.95;;;;;;;8.31;66.71;100071.13;5244531;28;20044;-69
2022/04/29 02:47:08;;;;;;;19.50;11.43;;;;;;;8.16;66.64;100069.50;5244080;28;20071;-69
2022/04/29 02:49:58;;;;;;;20.98;11.20;;;;;;;8.07;66.36;100073.59;5248706;28;20137;-69
2022/04/29 02:52:50;;;;;;;18.23;10.63;;;;;;;8.11;66.63;100083.03;5256958;28;20054;-70
2022/04/29 02:55:40;;;;;;;21.73;11.13;;;;;;;8.08;66.23;100077.94;5243004;28;20063;-69
2022/04/29 02:58:35;;;;;;;21.52;11.65;;;;;;;7.98;66.45;100079.50;5260049;28;20508;-69
2022/04/29 03:01:25;;;;;;;15.13;10.73;;;;;;;7.91;65.96;100076.41;5263943;28;20086;-69
2022/04/29 03:04:16;;;;;;;17.50;12.13;;;;;;;8.05;67.49;100077.31;5245498;28;20086;-69
2022/04/29 03:07:06;;;;;;;17.20;11.70;;;;;;;7.88;66.59;100073.09;5245434;28;20052;-69
2022/04/29 03:10:22;;;;;;;20.60;12.52;;;;;;;7.88;67.32;100070.47;5262575;28;20127;-69
2022/04/29 03:13:13;;;;;;;19.52;11.95;;;;;;;7.92;67.12;100066.69;5263392;28;20518;-69
2022/04/29 03:16:14;;;;;;;21.88;13.52;;;;;;;7.94;66.88;100070.06;5251022;28;20052;-69
2022/04/29 03:19:04;;;;;;;17.63;12.00;;;;;;;7.80;66.93;100078.03;5255401;28;20105;-69
2022/04/29 03:21:55;;;;;;;17.73;11.48;;;;;;;7.76;67.00;100080.03;5262194;28;20144;-69
2022/04/29 03:24:46;;;;;;;17.58;12.02;;;;;;;7.80;67.54;100062.22;5260769;28;20059;-69
2022/04/29 03:27:37;;;;;;;20.23;12.73;;;;;;;7.96;67.88;100061.09;5244054;28;20051;-69
2022/04/29 03:30:27;;;;;;;15.95;11.50;;;;;;;7.68;66.74;100050.63;5261702;28;20098;-69
2022/04/29 03:33:17;;;;;;;16.15;11.57;;;;;;;7.59;66.40;100038.06;5253051;28;20142;-69
2022/04/29 03:36:08;;;;;;;18.38;13.40;;;;;;;7.60;69.13;100027.38;5256248;28;20056;-69
2022/04/29 03:39:01;;;;;;;23.83;13.18;;;;;;;7.82;68.09;100050.59;5247113;28;20479;-69
2022/04/29 03:41:52;;;;;;;16.00;12.02;;;;;;;7.71;68.14;100056.56;5260871;28;20048;-69
2022/04/29 03:44:44;;;;;;;17.75;12.15;;;;;;;7.60;67.04;100063.50;5262788;28;20694;-69
2022/04/29 03:47:34;;;;;;;19.88;12.02;;;;;;;7.70;67.61;100059.31;5260430;28;20599;-69
2022/04/29 03:50:38;;;;;;;18.20;12.77;;;;;;;7.65;67.59;100053.47;5281784;28;20063;-68
2022/04/29 03:53:32;;;;;;;19.50;11.85;;;;;;;7.59;67.72;100051.25;5266809;28;20137;-68
2022/04/29 03:56:28;;;;;;;17.35;12.27;;;;;;;7.58;67.51;100060.09;5253903;28;20052;-68
2022/04/29 03:59:20;;;;;;;18.25;12.85;;;;;;;7.64;67.59;100055.28;5247965;28;20499;-68
2022/04/29 04:02:11;;;;;;;19.85;13.15;;;;;;;7.58;67.90;100053.03;5259835;28;20049;-68
2022/04/29 04:05:02;;;;;;;19.52;13.18;;;;;;;7.59;68.17;100051.25;5259442;28;20408;-68
2022/04/29 04:07:52;;;;;;;22.05;13.95;;;;;;;7.62;68.49;100054.53;5257129;28;20089;-68
2022/04/29 04:10:56;;;;;;;;;;;;;;;7.53;68.56;100053.31;5259160;28;20050;-68
2022/04/29 04:13:47;;;;;;;20.73;13.18;;;;;;;7.66;67.83;100065.75;5252949;28;20405;-68
2022/04/29 04:16:48;;;;;;;15.90;12.80;;;;;;;7.54;68.57;100052.38;5266543;28;20056;-68
2022/04/29 04:19:38;;;;;;;17.50;12.88;;;;;;;7.58;67.68;100057.47;5260682;28;20048;-68
2022/04/29 04:22:30;;;;;;;19.38;13.02;;;;;;;7.71;68.62;100063.63;5267056;28;20048;-68
2022/04/29 04:25:21;;;;;;;28.48;14.18;;;;;;;7.73;68.12;100061.75;5277598;28;20060;-68
2022/04/29 04:28:13;;;;;;;19.05;12.65;;;;;;;7.51;68.40;100051.72;5248856;28;20105;-68
2022/04/29 04:31:30;;;;;;;22.17;12.20;;;;;;;7.53;66.84;100077.09;5261456;28;20495;-68
2022/04/29 04:37:31;;;;;;;16.48;12.48;;;;;;;7.52;68.38;100080.69;5262965;28;20051;-67
2022/04/29 04:40:23;;;;;;;26.98;13.07;;;;;;;7.55;67.68;100066.44;5258602;28;20063;-67
2022/04/29 04:43:14;;;;;;;20.02;12.65;;;;;;;7.69;68.99;100084.88;5260510;28;20181;-68
2022/04/29 04:46:06;;;;;;;19.30;12.77;;;;;;;7.80;67.74;100089.44;5260370;28;20052;-67
2022/04/29 04:49:19;;;;;;;18.23;11.70;;;;;;;7.75;67.54;100088.91;5251254;28;20052;-67
2022/04/29 04:52:19;;;;;;;24.70;12.75;;;;;;;7.86;67.94;100088.22;5245277;28;20101;-67
2022/04/29 04:55:10;;;;;;;24.90;13.52;;;;;;;7.93;67.88;100073.66;5258416;28;20173;-67
2022/04/29 04:58:01;;;;;;;23.75;14.38;;;;;;;8.07;68.05;100081.50;5245074;28;20051;-68
2022/04/29 05:00:52;;;;;;;25.08;13.75;;;;;;;7.99;67.54;100089.94;5261736;28;20052;-67
2022/04/29 05:04:05;;;;;;;19.42;12.27;;;;;;;7.93;67.04;100090.34;5266112;28;20063;-68
2022/04/29 05:07:14;;;;;;;18.67;13.52;;;;;;;7.97;68.15;100091.00;5245945;28;20070;-68
2022/04/29 05:10:08;;;;;;;20.33;13.77;;;;;;;8.09;67.92;100078.78;5245213;28;20141;-67
2022/04/29 05:12:59;;;;;;;20.30;12.38;;;;;;;8.14;67.18;100103.94;5258823;28;20051;-67
2022/04/29 05:15:51;;;;;;;21.85;12.43;;;;;;;8.08;67.76;100093.78;5255335;28;20114;-67
2022/04/29 05:18:49;;;;;;;19.60;12.30;;;;;;;8.10;67.82;100102.44;5258452;28;20445;-70
2022/04/29 05:21:40;;;;;;;23.08;12.55;;;;;;;8.09;67.85;100102.56;5260998;28;20056;-70
2022/04/29 05:24:31;;;;;;;18.75;12.88;;;;;;;8.18;66.84;100099.31;5278608;28;20047;-69
2022/04/29 05:27:39;;;;;;;25.35;13.68;;;;;;;8.28;67.56;100110.97;5252115;28;20052;-69
2022/04/29 05:30:49;;;;;;;18.65;13.20;;;;;;;8.46;67.63;100115.03;5263500;28;20602;-69
2022/04/29 05:33:45;;;;;;;24.02;14.32;;;;;;;8.53;67.80;100112.84;5249240;28;20178;-68
2022/04/29 05:36:54;;;;;;;28.08;15.27;;;;;;;8.59;67.44;100108.94;5260238;28;20108;-68
2022/04/29 05:43:21;;;;;;;27.98;15.43;;;;;;;8.76;68.83;100118.38;5258218;28;20059;-69
2022/04/29 05:46:10;;;;;;;23.25;14.05;;;;;;;8.80;67.68;100122.47;5251288;28;20603;-67
2022/04/29 05:49:04;;;;;;;24.50;14.70;;;;;;;8.92;66.89;100121.66;5244269;28;20048;-67
2022/04/29 05:52:02;;;;;;;42.17;15.73;;;;;;;8.89;67.37;100128.00;5243927;28;20415;-68
2022/04/29 05:54:55;;;;;;;37.55;16.50;;;;;;;9.12;65.72;100128.22;5257329;28;20052;-68
2022/04/29 05:57:51;;;;;;;45.80;15.73;;;;;;;9.19;66.67;100129.47;5243733;28;20133;-68
2022/04/29 06:00:42;;;;;;;44.92;17.15;;;;;;;9.22;66.99;100128.41;5249394;28;20139;-68
2022/04/29 06:03:33;;;;;;;35.08;14.32;;;;;;;9.41;65.23;100123.53;5230300;28;20422;-68
2022/04/29 06:06:24;;;;;;;41.25;15.20;;;;;;;9.47;64.28;100128.38;5261067;28;20510;-68
2022/04/29 06:09:15;;;;;;;47.60;16.15;;;;;;;9.59;65.82;100116.91;5257470;28;20047;-68
2022/04/29 06:12:06;;;;;;;33.72;16.38;;;;;;;9.69;64.82;100122.38;5248852;28;20059;-68
2022/04/29 06:14:57;;;;;;;44.03;17.92;;;;;;;9.89;64.85;100119.13;5245623;28;20117;-68
2022/04/29 06:18:19;;;;;;;33.85;17.15;;;;;;;10.04;64.01;100119.00;5234970;28;20047;-68
2022/04/29 06:21:18;;;;;;;31.92;17.75;;;;;;;10.27;64.50;100120.81;5258510;28;20048;-68
2022/04/29 06:24:12;;;;;;;30.80;17.52;;;;;;;10.25;64.13;100120.03;5256313;28;20055;-68
2022/04/29 06:27:03;;;;;;;32.72;17.52;;;;;;;10.56;64.69;100115.09;5261899;28;20055;-68
2022/04/29 06:29:53;;;;;;;32.65;17.73;;;;;;;10.73;65.10;100121.81;5258100;28;20047;-68
2022/04/29 06:32:44;;;;;;;28.23;17.70;;;;;;;11.02;64.22;100130.16;5258063;28;20058;-68
2022/04/29 06:35:50;;;;;;;23.92;15.90;;;;;;;11.24;63.66;100119.56;5271883;28;20146;-68
2022/04/29 06:38:41;;;;;;;19.13;15.15;;;;;;;11.51;62.81;100121.00;5260161;28;20048;-68
2022/04/29 06:41:51;;;;;;;22.73;15.65;;;;;;;11.73;62.35;100109.50;5264524;28;20052;-68
2022/04/29 06:45:05;;;;;;;22.48;14.45;;;;;;;11.84;61.07;100117.47;5256740;28;20074;-69
2022/04/29 06:48:14;;;;;;;22.77;15.05;;;;;;;12.20;60.23;100118.09;5251212;28;20059;-68
2022/04/29 06:51:40;;;;;;;22.15;15.32;;;;;;;12.32;59.66;100118.91;5195982;28;20104;-68
2022/04/29 06:54:39;;;;;;;21.33;14.77;;;;;;;12.55;59.15;100114.28;5262284;28;20048;-68
2022/04/29 06:57:34;;;;;;;26.52;15.07;;;;;;;13.01;57.00;100116.53;5259170;28;20065;-68
2022/04/29 07:00:25;;;;;;;18.50;13.88;;;;;;;13.57;53.95;100113.44;5277860;28;20064;-69
2022/04/29 07:03:15;;;;;;;21.27;12.57;;;;;;;13.51;52.33;100100.69;5263254;28;20064;-68
2022/04/29 07:06:06;;;;;;;15.77;11.50;;;;;;;13.52;53.11;100106.88;5256664;28;20059;-68
2022/04/29 07:08:56;;;;;;;19.65;12.07;;;;;;;13.80;53.32;100107.91;5248279;28;20524;-69
2022/04/29 07:12:15;;;;;;;17.30;12.73;;;;;;;14.08;53.93;100098.28;5258959;28;20059;-69
2022/04/29 07:15:17;;;;;;;21.38;13.88;;;;;;;14.22;51.68;100089.00;5273559;28;20062;-69
2022/04/29 07:18:10;;;;;;;21.05;15.07;;;;;;;14.25;53.55;100089.56;5242835;28;20052;-70
2022/04/29 07:21:00;;;;;;;22.02;15.40;;;;;;;14.80;50.71;100094.28;5240983;28;20088;-69
2022/04/29 07:23:50;;;;;;;26.23;17.05;;;;;;;14.74;51.89;100089.56;5257037;28;20063;-69
2022/04/29 07:26:41;;;;;;;21.55;15.65;;;;;;;14.94;50.73;100069.81;5262237;28;20414;-69
2022/04/29 07:29:34;;;;;;;23.40;14.27;;;;;;;15.05;49.78;100082.16;5242539;28;20547;-69
2022/04/29 07:32:35;;;;;;;33.22;13.25;;;;;;;15.23;51.09;100090.22;5242222;28;20052;-68
2022/04/29 07:42:06;;;;;;;19.80;12.90;;;;;;;15.82;50.47;100064.91;5256989;28;20075;-68
2022/04/29 07:44:56;;;;;;;20.20;13.77;;;;;;;16.10;49.71;100080.91;5256116;28;20611;-69
2022/04/29 07:48:11;;;;;;;15.98;10.30;;;;;;;16.30;45.63;100077.06;5262552;28;20144;-69
2022/04/29 07:51:02;;;;;;;16.90;11.85;;;;;;;16.28;48.04;100081.72;5262240;28;20061;-69
2022/04/29 07:53:54;;;;;;;17.58;12.18;;;;;;;16.55;47.37;100078.09;5262100;28;20059;-69
2022/04/29 07:56:45;;;;;;;14.95;11.18;;;;;;;16.06;47.16;100071.47;5261691;28;20059;-69
2022/04/29 07:59:38;;;;;;;15.73;11.95;;;;;;;16.31;48.33;100078.75;5276625;28;20619;-69
2022/04/29 08:02:46;;;;;;;18.27;12.25;;;;;;;16.17;47.68;100079.28;5262216;28;20085;-69
2022/04/29 08:05:43;;;;;;;20.95;12.27;;;;;;;15.97;47.68;100073.25;5258112;28;20909;-69
2022/04/29 08:08:35;;;;;;;17.67;11.43;;;;;;;16.05;47.33;100073.31;5262419;28;20511;-69
2022/04/29 08:11:26;;;;;;;16.38;11.30;;;;;;;15.88;47.24;100077.66;5252621;28;20564;-69
2022/04/29 08:14:41;;;;;;;20.38;12.45;;;;;;;16.71;46.64;100082.72;5258433;28;20102;-68
2022/04/29 08:17:42;;;;;;;22.48;12.15;;;;;;;17.89;43.85;100080.34;5265719;28;20121;-69
2022/04/29 08:20:32;;;;;;;18.05;12.60;;;;;;;18.16;45.88;100080.03;5280187;28;20040;-69
2022/04/29 08:23:23;;;;;;;17.88;11.30;;;;;;;18.16;43.47;100073.81;5266147;28;20044;-69
2022/04/29 08:26:13;;;;;;;18.48;12.38;;;;;;;18.30;43.08;100082.03;5264608;28;20493;-69
2022/04/29 08:29:03;;;;;;;16.75;11.38;;;;;;;18.69;41.78;100073.31;5264859;28;20078;-69
2022/04/29 08:31:54;;;;;;;18.73;11.48;;;;;;;18.81;41.21;100072.97;5265332;28;20133;-69
2022/04/29 08:34:44;;;;;;;19.48;12.05;;;;;;;19.47;40.87;100069.09;5265351;28;20059;-69
2022/04/29 08:37:39;;;;;;;23.23;14.80;;;;;;;20.34;40.29;100066.22;5265587;28;20418;-69
2022/04/29 08:40:29;;;;;;;23.05;13.63;;;;;;;20.71;39.38;100069.97;5267231;28;20094;-69
2022/04/29 08:43:22;;;;;;;18.50;12.43;;;;;;;21.52;38.19;100071.78;5245258;28;20516;-69
2022/04/29 08:46:21;;;;;;;16.50;10.38;;;;;;;22.35;36.79;100063.31;5245255;28;20589;-69
2022/04/29 08:49:25;;;;;;;17.67;12.00;;;;;;;22.89;37.39;100052.72;5263452;28;20055;-70
2022/04/29 08:52:16;;;;;;;15.35;10.18;;;;;;;22.59;36.35;100056.69;5265930;28;20047;-70
2022/04/29 09:01:27;;;;;;;18.35;12.15;;;;;;;22.89;37.69;100049.19;5245994;28;20224;-69
2022/04/29 09:04:18;;;;;;;16.17;11.02;;;;;;;22.87;36.71;100043.97;5249214;28;20151;-69
2022/04/29 09:07:09;;;;;;;18.45;11.95;;;;;;;23.42;37.61;100042.22;5258139;28;20059;-69
2022/04/29 09:10:04;;;;;;;16.80;11.82;;;;;;;23.26;33.58;100039.03;5245688;28;20095;-69
2022/04/29 09:12:55;;;;;;;17.67;11.85;;;;;;;23.21;34.84;100042.31;5246034;28;20059;-69
2022/04/29 09:15:54;;;;;;;17.15;12.05;;;;;;;23.25;35.93;100029.25;5245800;28;20059;-70
2022/04/29 09:18:55;;;;;;;12.90;10.25;;;;;;;22.70;35.07;100023.69;5260251;28;20052;-69
2022/04/29 09:22:03;;;;;;;12.55;9.20;;;;;;;22.15;35.21;100026.19;5246216;28;20054;-69
2022/04/29 09:25:01;;;;;;;13.30;9.30;;;;;;;23.35;34.41;100027.00;5272933;28;20067;-69
2022/04/29 09:28:03;;;;;;;14.30;8.30;;;;;;;23.65;32.32;100024.81;5248138;28;20117;-69
2022/04/29 09:31:14;;;;;;;11.13;7.90;;;;;;;23.71;32.56;99999.66;5264346;28;20055;-69
2022/04/29 09:34:17;;;;;;;12.30;8.50;;;;;;;23.66;33.44;100008.34;5257423;28;20067;-69
2022/04/29 09:37:18;;;;;;;11.43;7.88;;;;;;;23.18;32.43;100008.41;5245599;28;20055;-69
2022/04/29 09:40:15;;;;;;;14.60;7.78;;;;;;;23.81;33.86;100010.94;5245323;28;20041;-69
2022/04/29 09:43:05;;;;;;;18.10;7.95;;;;;;;23.44;31.73;100002.28;5245434;28;20055;-69
2022/04/29 09:46:08;;;;;;;13.45;6.93;;;;;;;23.65;36.43;99998.56;5245235;28;20087;-69
2022/04/29 09:49:06;;;;;;;11.98;7.55;;;;;;;23.86;34.21;99994.88;5251879;28;20170;-69
2022/04/29 09:51:56;;;;;;;11.73;7.32;;;;;;;24.13;31.06;99987.63;5245816;28;20053;-69
2022/04/29 09:54:46;;;;;;;9.73;7.10;;;;;;;24.31;30.04;99981.59;5259757;28;20131;-69
2022/04/29 09:57:51;;;;;;;12.38;7.05;;;;;;;23.39;33.65;99983.09;5265052;28;20047;-70
2022/04/29 10:00:41;;;;;;;9.07;6.47;;;;;;;23.19;31.67;99957.81;5265314;28;20507;-68
2022/04/29 10:03:33;;;;;;;16.73;8.32;;;;;;;22.47;33.64;99969.88;5259463;28;20056;-69
2022/04/29 10:06:26;;;;;;;8.60;6.53;;;;;;;23.01;32.15;99968.34;5260088;28;20540;-70
2022/04/29 10:09:18;;;;;;;10.07;6.72;;;;;;;23.45;32.49;99968.75;5265730;28;20149;-69
2022/04/29 10:12:14;;;;;;;12.32;7.10;;;;;;;23.84;30.38;99969.91;5265245;28;20059;-70
2022/04/29 10:15:16;;;;;;;7.70;6.40;;;;;;;23.96;31.31;99966.56;5264444;28;20059;-69
2022/04/29 10:21:38;;;;;;;13.90;6.75;;;;;;;24.70;29.03;99958.22;5263769;28;20196;-69
2022/04/29 10:24:29;;;;;;;12.18;6.35;;;;;;;23.63;33.17;99949.19;5264922;28;20056;-69
2022/04/29 10:27:19;;;;;;;8.98;5.63;;;;;;;24.15;32.00;99950.31;5259316;28;20048;-69
2022/04/29 10:30:11;;;;;;;9.48;5.47;;;;;;;24.22;30.65;99944.06;5259667;28;20056;-70
2022/04/29 10:33:06;;;;;;;4.85;4.35;;;;;;;23.80;30.33;99946.13;5252918;28;20074;-70
2022/04/29 10:36:05;;;;;;;6.68;5.07;;;;;;;24.22;33.38;99944.91;5259842;28;20059;-69
2022/04/29 10:39:02;;;;;;;13.23;6.05;;;;;;;22.10;33.51;99936.75;5264496;28;20066;-69
2022/04/29 10:42:09;;;;;;;9.60;5.70;;;;;;;23.53;36.24;99934.41;5263638;28;20100;-70
2022/04/29 10:45:02;;;;;;;7.03;4.88;;;;;;;24.24;31.87;99931.13;5249895;28;20139;-69
2022/04/29 10:47:54;;;;;;;8.82;4.85;;;;;;;23.92;28.07;99922.81;5263305;28;20044;-70
2022/04/29 10:50:47;;;;;;;;;;;;;;;23.97;31.89;99924.88;5263626;28;20048;-70
2022/04/29 10:54:08;;;;;;;11.60;4.30;;;;;;;24.57;29.14;99914.84;5264306;28;20305;-69
2022/04/29 10:57:40;;;;;;;7.80;4.95;;;;;;;24.32;28.09;99920.91;5242786;28;20048;-69
2022/04/29 11:00:30;;;;;;;5.82;4.93;;;;;;;24.37;29.51;99907.56;5263004;28;20047;-70
2022/04/29 11:03:43;;;;;;;6.38;4.47;;;;;;;23.47;28.07;99902.72;5245109;28;20057;-69
2022/04/29 11:06:52;;;;;;;9.18;4.85;;;;;;;23.57;29.21;99906.69;5244621;28;20514;-69
2022/04/29 11:09:45;;;;;;;8.13;4.57;;;;;;;23.76;30.03;99904.25;5244556;28;20165;-69
2022/04/29 11:12:39;;;;;;;10.50;5.50;;;;;;;24.10;28.31;99901.31;5258348;28;20173;-69
2022/04/29 11:15:48;;;;;;;7.80;4.70;;;;;;;23.41;33.01;99899.81;5262053;28;20063;-69
2022/04/29 11:19:21;;;;;;;7.70;3.50;;;;;;;23.04;28.44;99897.63;5262196;28;20116;-69
2022/04/29 11:25:27;;;;;;;5.95;4.72;;;;;;;23.30;28.83;99889.59;5261073;28;20060;-69
2022/04/29 11:28:41;;;;;;;7.60;4.40;;;;;;;22.82;29.49;99892.31;5245669;28;20071;-69
2022/04/29 11:31:50;;;;;;;4.22;3.40;;;;;;;22.85;29.29;99888.38;5255387;28;20063;-69
2022/04/29 11:35:00;;;;;;;6.00;3.40;;;;;;;22.89;31.88;99882.38;5259563;28;20141;-68
2022/04/29 11:37:51;;;;;;;5.40;3.55;;;;;;;22.93;29.37;99889.06;5251411;28;20127;-68
2022/04/29 11:40:41;;;;;;;4.40;3.30;;;;;;;23.08;28.31;99878.09;5254829;28;20059;-68
2022/04/29 11:43:32;;;;;;;4.90;3.10;;;;;;;23.11;28.73;99879.53;5257779;28;20051;-67
2022/04/29 11:46:23;;;;;;;4.00;2.63;;;;;;;22.97;30.59;99863.28;5257828;28;20110;-68
2022/04/29 11:49:27;;;;;;;3.17;2.88;;;;;;;23.01;30.29;99868.28;5256222;28;20075;-70
2022/04/29 11:52:23;;;;;;;3.05;2.72;;;;;;;22.14;30.51;99870.50;5258911;28;20070;-69
2022/04/29 11:55:17;;;;;;;7.18;3.22;;;;;;;22.26;29.73;99868.13;5258245;28;20059;-68
2022/04/29 11:58:07;;;;;;;7.28;3.03;;;;;;;22.77;29.56;99854.22;5255141;28;20205;-67
2022/04/29 12:00:58;;;;;;;7.65;3.05;;;;;;;22.98;30.85;99859.56;5265743;28;20051;-68
2022/04/29 12:03:48;;;;;;;3.33;3.03;;;;;;;22.52;27.62;99843.13;5266187;28;20075;-67
2022/04/29 12:06:54;;;;;;;5.05;3.00;;;;;;;23.05;27.65;99853.34;5265652;28;20052;-68
2022/04/29 12:09:44;;;;;;;5.45;3.10;;;;;;;21.77;29.62;99847.38;5245966;28;20145;-70
2022/04/29 12:12:35;;;;;;;5.95;3.03;;;;;;;22.17;30.80;99853.09;5255592;28;20052;-68
2022/04/29 12:15:35;;;;;;;4.55;3.17;;;;;;;22.67;28.95;99840.25;5245582;28;20139;-68
2022/04/29 12:18:46;;;;;;;6.10;3.58;;;;;;;22.90;31.26;99846.16;5259504;28;20055;-67
2022/04/29 12:21:36;;;;;;;5.53;3.38;;;;;;;23.07;33.35;99852.06;5265708;28;20108;-68
2022/04/29 12:24:41;;;;;;;8.35;2.92;;;;;;;23.35;31.45;99842.97;5245185;28;20118;-68
2022/04/29 12:27:32;;;;;;;6.05;2.78;;;;;;;23.34;28.82;99822.34;5252008;28;20133;-67
2022/04/29 12:37:09;;;;;;;3.70;3.08;;;;;;;23.36;30.60;99813.00;5261460;28;20058;-69
2022/04/29 12:40:15;;;;;;;5.93;3.13;;;;;;;22.78;29.29;99812.66;5264952;28;20434;-69
2022/04/29 12:43:13;;;;;;;4.38;2.88;;;;;;;21.43;29.67;99810.38;5257220;28;20060;-68
2022/04/29 12:46:13;;;;;;;6.50;3.15;;;;;;;22.51;30.71;99817.09;5253511;28;20133;-70
2022/04/29 12:49:03;;;;;;;4.57;3.20;;;;;;;22.16;30.52;99819.03;5260578;28;20047;-68
2022/04/29 12:52:01;;;;;;;5.82;3.33;;;;;;;22.17;30.53;99820.69;5254659;28;20145;-67
2022/04/29 12:54:57;;;;;;;5.07;3.10;;;;;;;21.84;31.22;99815.88;5250008;28;20056;-67
2022/04/29 12:57:47;;;;;;;6.28;3.60;;;;;;;21.43;30.42;99805.78;5260231;28;20063;-67
2022/04/29 13:00:39;;;;;;;7.25;3.03;;;;;;;22.52;32.31;99806.09;5255580;28;20050;-67
2022/04/29 13:03:31;;;;;;;6.07;3.15;;;;;;;22.95;30.67;99802.34;5256140;28;20059;-69
2022/04/29 13:06:33;;;;;;;4.90;3.30;;;;;;;21.80;27.64;99793.00;5272368;28;20130;-67
2022/04/29 13:09:25;;;;;;;6.47;3.05;;;;;;;22.32;29.06;99790.81;5245112;28;20051;-69
2022/04/29 13:12:15;;;;;;;5.68;3.50;;;;;;;21.37;29.30;99787.69;5256930;28;20116;-68
2022/04/29 13:15:20;;;;;;;4.55;3.25;;;;;;;21.93;30.07;99781.47;5248328;28;20062;-68
2022/04/29 13:18:12;;;;;;;8.68;3.15;;;;;;;22.02;30.01;99781.09;5244779;28;20060;-68
2022/04/29 13:21:08;;;;;;;10.02;4.53;;;;;;;21.97;29.26;99777.31;5244433;28;20198;-68
2022/04/29 13:24:01;;;;;;;3.72;3.10;;;;;;;21.73;29.78;99765.13;5260673;28;20101;-67
2022/04/29 13:27:07;;;;;;;5.03;2.88;;;;;;;21.10;31.47;99765.00;5251984;28;20059;-67
2022/04/29 13:29:58;;;;;;;7.45;3.65;;;;;;;21.64;30.33;99764.44;5251016;28;20123;-67
2022/04/29 13:32:48;;;;;;;3.83;3.10;;;;;;;21.87;30.08;99749.84;5260415;28;20580;-67
2022/04/29 13:35:39;;;;;;;4.75;3.08;;;;;;;22.05;30.13;99755.53;5254725;28;20193;-68
2022/04/29 13:38:29;;;;;;;4.45;3.13;;;;;;;22.56;29.46;99755.19;5257412;28;20047;-68
2022/04/29 13:41:21;;;;;;;7.05;3.50;;;;;;;21.88;28.66;99741.53;5249864;28;20040;-68
2022/04/29 13:44:14;;;;;;;3.55;3.20;;;;;;;22.02;30.09;99732.50;5251339;28;20121;-66
2022/04/29 13:47:05;;;;;;;6.00;3.40;;;;;;;21.71;29.31;99746.41;5254099;28;20123;-66
2022/04/29 13:49:55;;;;;;;4.25;3.35;;;;;;;21.38;30.69;99734.56;5256892;28;20044;-66
2022/04/29 13:55:54;;;;;;;5.38;3.05;;;;;;;22.04;31.69;99734.97;5263333;28;20052;-66
2022/04/29 13:58:44;;;;;;;3.80;3.13;;;;;;;21.77;29.96;99715.94;5265280;28;20048;-66
2022/04/29 14:01:39;;;;;;;4.35;3.08;;;;;;;22.11;29.59;99729.59;5264759;28;20123;-67
2022/04/29 14:04:29;;;;;;;5.28;3.38;;;;;;;22.12;29.95;99715.06;5261413;28;20086;-68
2022/04/29 14:07:20;;;;;;;6.65;3.25;;;;;;;22.02;30.22;99721.69;5258198;28;20416;-69